Time;durP1;ratioP1;P1;durP2;ratioP2;P2;SDS_P1;SDS_P2;PMS_P1;PMS_P2;Temp;Humidity;BMP_temperature;BMP_pressure;BME280_temperature;BME280_humidity;BME280_pressure;Samples;Min_cycle;Max_cycle;Signal;HPM_P1;HPM_P2
2023/03/06 00:00:19;;;;;;;20.63;5.87;;;1.70;99.90;;;;;;4993143;28;20955;-67
2023/03/06 00:02:45;;;;;;;18.80;6.97;;;1.70;99.90;;;;;;4996214;28;20504;-67
2023/03/06 00:05:12;;;;;;;13.10;5.77;;;1.70;99.90;;;;;;4994320;28;20522;-67
2023/03/06 00:07:37;;;;;;;29.53;6.30;;;1.70;99.90;;;;;;4996968;28;20701;-67
2023/03/06 00:10:03;;;;;;;18.87;7.30;;;1.70;99.90;;;;;;4994783;28;20502;-67
2023/03/06 00:12:29;;;;;;;14.47;6.57;;;1.70;99.90;;;;;;4996149;28;20190;-67
2023/03/06 00:14:54;;;;;;;15.60;6.87;;;1.70;99.90;;;;;;4994828;28;20176;-67
2023/03/06 00:17:20;;;;;;;11.27;5.97;;;1.70;99.90;;;;;;4995101;28;20212;-67
2023/03/06 00:19:46;;;;;;;14.17;6.80;;;1.70;99.90;;;;;;5016721;23;20297;-67
2023/03/06 00:22:15;;;;;;;17.57;7.30;;;1.70;99.90;;;;;;5028803;28;20329;-67
2023/03/06 00:24:41;;;;;;;13.40;6.23;;;1.70;99.90;;;;;;5032356;28;20182;-67
2023/03/06 00:27:08;;;;;;;15.77;7.30;;;1.70;99.90;;;;;;5031631;28;20464;-67
2023/03/06 00:29:34;;;;;;;15.77;6.00;;;1.70;99.90;;;;;;5032504;28;20888;-67
2023/03/06 00:32:00;;;;;;;13.20;6.33;;;1.70;99.90;;;;;;5031190;28;20508;-67
2023/03/06 00:34:26;;;;;;;13.07;7.20;;;1.70;99.90;;;;;;5031931;28;21072;-67
2023/03/06 00:36:52;;;;;;;18.73;7.53;;;1.70;99.90;;;;;;5032242;28;20425;-67
2023/03/06 00:39:17;;;;;;;16.90;7.77;;;1.60;99.90;;;;;;5032346;28;20554;-67
2023/03/06 00:41:43;;;;;;;14.47;6.50;;;1.60;99.90;;;;;;5031656;28;20685;-67
2023/03/06 00:44:09;;;;;;;13.63;6.30;;;1.60;99.90;;;;;;5031692;28;20189;-67
2023/03/06 00:46:34;;;;;;;17.40;7.70;;;1.60;99.90;;;;;;5031150;28;20206;-67
2023/03/06 00:49:00;;;;;;;19.37;8.93;;;1.60;99.90;;;;;;5031615;28;20194;-67
2023/03/06 00:51:26;;;;;;;15.60;6.73;;;1.60;99.90;;;;;;5031356;28;20202;-67
2023/03/06 00:53:51;;;;;;;19.30;7.67;;;1.60;99.90;;;;;;5031870;28;20190;-67
2023/03/06 00:56:18;;;;;;;25.87;6.97;;;1.60;99.90;;;;;;5013520;28;20631;-67
2023/03/06 00:58:44;;;;;;;22.53;8.03;;;1.60;99.90;;;;;;5031381;28;20592;-67
2023/03/06 01:01:10;;;;;;;14.97;6.80;;;1.60;99.90;;;;;;5031182;28;20467;-67
2023/03/06 01:03:36;;;;;;;15.83;7.70;;;1.60;99.90;;;;;;5031554;28;20720;-67
2023/03/06 01:06:02;;;;;;;13.73;7.33;;;1.60;99.90;;;;;;5031268;28;20723;-67
2023/03/06 01:08:28;;;;;;;20.47;7.30;;;1.60;99.90;;;;;;5031672;28;20588;-67
2023/03/06 01:10:53;;;;;;;17.97;7.60;;;1.60;99.90;;;;;;5031261;28;20496;-67
2023/03/06 01:13:19;;;;;;;14.13;8.50;;;1.60;99.90;;;;;;5030920;28;20182;-67
2023/03/06 01:15:45;;;;;;;16.43;7.20;;;1.60;99.90;;;;;;5030943;28;20563;-67
2023/03/06 01:18:10;;;;;;;19.10;9.20;;;1.60;99.90;;;;;;5030285;28;20659;-67
2023/03/06 01:20:36;;;;;;;31.43;9.90;;;1.60;99.90;;;;;;5031220;28;20198;-67
2023/03/06 01:23:02;;;;;;;23.73;9.00;;;1.60;99.90;;;;;;5031180;28;20214;-67
2023/03/06 01:25:27;;;;;;;21.73;8.23;;;1.60;99.90;;;;;;5030930;28;20536;-67
2023/03/06 01:27:53;;;;;;;19.57;7.60;;;1.50;99.90;;;;;;5031269;28;20203;-67
2023/03/06 01:30:19;;;;;;;16.03;6.93;;;1.50;99.90;;;;;;5030263;28;20178;-67
2023/03/06 01:32:45;;;;;;;20.63;8.73;;;1.50;99.90;;;;;;5030254;28;20204;-67
2023/03/06 01:35:11;;;;;;;24.03;8.20;;;1.50;99.90;;;;;;5030828;28;20718;-67
2023/03/06 01:37:38;;;;;;;17.23;7.00;;;1.50;99.90;;;;;;5030877;28;20186;-67
2023/03/06 01:40:05;;;;;;;18.93;7.93;;;1.60;99.90;;;;;;5030753;28;20425;-67
2023/03/06 01:42:31;;;;;;;14.40;7.37;;;1.60;99.90;;;;;;5030593;28;20421;-67
2023/03/06 01:45:06;;;;;;;16.03;8.13;;;1.60;99.90;;;;;;5030581;28;20440;-67
2023/03/06 01:47:31;;;;;;;15.43;7.23;;;1.60;99.90;;;;;;5025656;28;20205;-67
2023/03/06 01:49:59;;;;;;;15.17;6.70;;;1.60;99.90;;;;;;5030371;28;20776;-67
2023/03/06 01:52:30;;;;;;;20.97;8.00;;;1.60;99.90;;;;;;5024316;28;20734;-67
2023/03/06 01:55:08;;;;;;;18.80;6.70;;;1.50;99.90;;;;;;5030440;28;20413;-67
2023/03/06 01:57:39;;;;;;;20.37;7.67;;;1.50;99.90;;;;;;5026632;28;20417;-67
2023/03/06 02:00:09;;;;;;;17.20;7.83;;;1.50;99.90;;;;;;5029990;28;20425;-67
2023/03/06 02:02:36;;;;;;;18.00;6.47;;;1.50;99.90;;;;;;5029318;28;20421;-67
2023/03/06 02:05:04;;;;;;;15.97;6.90;;;1.50;99.90;;;;;;5030497;28;20666;-67
2023/03/06 02:07:30;;;;;;;17.03;6.90;;;1.50;99.90;;;;;;5030240;28;20527;-67
2023/03/06 02:09:57;;;;;;;17.20;7.10;;;1.50;99.90;;;;;;5030017;28;20428;-66
2023/03/06 02:12:23;;;;;;;14.53;6.60;;;1.50;99.90;;;;;;5029802;28;20500;-66
2023/03/06 02:14:49;;;;;;;13.33;6.80;;;1.50;99.90;;;;;;5025121;28;20524;-66
2023/03/06 02:17:18;;;;;;;16.10;6.70;;;1.50;99.90;;;;;;5029433;28;20429;-66
2023/03/06 02:19:55;;;;;;;20.67;6.63;;;1.50;99.90;;;;;;5024414;28;20460;-66
2023/03/06 02:22:22;;;;;;;15.60;7.80;;;1.50;99.90;;;;;;5029081;28;20820;-66
2023/03/06 02:25:18;;;;;;;14.23;6.50;;;1.50;99.90;;;;;;5027967;28;20434;-66
2023/03/06 02:27:43;;;;;;;14.33;6.40;;;1.50;99.90;;;;;;5021054;28;20552;-66
2023/03/06 02:30:12;;;;;;;10.83;5.43;;;1.50;99.90;;;;;;5029219;28;20516;-66
2023/03/06 02:32:38;;;;;;;17.20;6.37;;;1.50;99.90;;;;;;5029107;28;20213;-66
2023/03/06 02:35:05;;;;;;;12.83;5.67;;;1.50;99.90;;;;;;5029791;28;20441;-66
2023/03/06 02:37:31;;;;;;;14.70;6.60;;;1.50;99.90;;;;;;5029706;28;20182;-66
2023/03/06 02:40:11;;;;;;;20.40;6.13;;;1.50;99.90;;;;;;5029566;28;20798;-66
2023/03/06 02:42:36;;;;;;;10.97;5.50;;;1.50;99.90;;;;;;5023925;28;20485;-66
2023/03/06 02:45:06;;;;;;;13.00;5.97;;;1.50;99.90;;;;;;5026283;28;20433;-66
2023/03/06 02:47:31;;;;;;;33.70;6.13;;;1.50;99.90;;;;;;5028570;28;20202;-66
2023/03/06 02:49:57;;;;;;;14.53;5.67;;;1.50;99.90;;;;;;5029611;28;20421;-65
2023/03/06 02:52:22;;;;;;;10.03;5.10;;;1.50;99.90;;;;;;5029206;28;20631;-68
2023/03/06 02:54:48;;;;;;;13.90;6.70;;;1.50;99.90;;;;;;5030140;28;20178;-66
2023/03/06 02:57:14;;;;;;;17.23;6.57;;;1.50;99.90;;;;;;5029463;28;20273;-65
2023/03/06 02:59:39;;;;;;;11.90;6.10;;;1.50;99.90;;;;;;5029832;28;20232;-65
2023/03/06 03:02:05;;;;;;;12.70;6.27;;;1.40;99.90;;;;;;5028318;28;20197;-65
2023/03/06 03:04:31;;;;;;;12.37;5.93;;;1.40;99.90;;;;;;5029626;28;20191;-66
2023/03/06 03:06:56;;;;;;;11.50;5.93;;;1.40;99.90;;;;;;5029018;28;20258;-65
2023/03/06 03:09:22;;;;;;;9.47;6.13;;;1.50;99.90;;;;;;5029676;28;20588;-65
2023/03/06 03:11:47;;;;;;;12.87;5.13;;;1.40;99.90;;;;;;5029387;28;20182;-65
2023/03/06 03:14:13;;;;;;;13.43;6.03;;;1.40;99.90;;;;;;5029053;28;20187;-65
2023/03/06 03:16:38;;;;;;;12.33;6.23;;;1.40;99.90;;;;;;5028619;28;20333;-66
2023/03/06 03:19:04;;;;;;;17.43;5.90;;;1.40;99.90;;;;;;5029159;28;20232;-65
2023/03/06 03:21:30;;;;;;;15.27;6.30;;;1.40;99.90;;;;;;5029057;28;20202;-65
2023/03/06 03:23:55;;;;;;;11.30;5.80;;;1.40;99.90;;;;;;5029235;28;20210;-65
2023/03/06 03:26:21;;;;;;;11.07;6.10;;;1.40;99.90;;;;;;5028670;28;20210;-65
2023/03/06 03:28:47;;;;;;;13.10;5.13;;;1.40;99.90;;;;;;5029578;28;20197;-65
2023/03/06 03:31:13;;;;;;;8.63;4.93;;;1.40;99.90;;;;;;5028335;28;20424;-65
2023/03/06 03:33:39;;;;;;;18.40;6.47;;;1.50;99.90;;;;;;5029125;28;20197;-65
2023/03/06 03:36:06;;;;;;;15.00;6.50;;;1.60;99.90;;;;;;5029516;28;20186;-65
2023/03/06 03:38:33;;;;;;;8.40;4.20;;;1.40;99.90;;;;;;5034584;28;20444;-65
2023/03/06 03:41:00;;;;;;;11.50;4.90;;;1.40;99.90;;;;;;5038557;28;20422;-65
2023/03/06 03:43:26;;;;;;;10.57;5.27;;;1.40;99.90;;;;;;5038552;28;20488;-65
2023/03/06 03:45:52;;;;;;;16.13;5.00;;;1.40;99.90;;;;;;5038498;28;20436;-65
2023/03/06 03:48:18;;;;;;;14.23;7.10;;;1.40;99.90;;;;;;5038804;28;20227;-65
2023/03/06 03:50:44;;;;;;;6.40;4.63;;;1.40;99.90;;;;;;5032998;28;20424;-65
2023/03/06 03:53:09;;;;;;;20.10;6.33;;;1.40;99.90;;;;;;5032089;28;20175;-65
2023/03/06 03:55:35;;;;;;;14.70;6.03;;;1.40;99.90;;;;;;5032949;28;20254;-65
2023/03/06 03:58:01;;;;;;;10.67;5.50;;;1.40;99.90;;;;;;5032325;28;20257;-65
2023/03/06 04:00:26;;;;;;;14.53;6.10;;;1.40;99.90;;;;;;5031927;28;20253;-66
2023/03/06 04:02:52;;;;;;;12.47;5.90;;;1.40;99.90;;;;;;5031419;28;20187;-65
2023/03/06 04:05:18;;;;;;;13.03;5.93;;;1.40;99.90;;;;;;5032287;28;20262;-65
2023/03/06 04:07:43;;;;;;;12.67;5.80;;;1.40;99.90;;;;;;5032236;28;20206;-66
2023/03/06 04:10:10;;;;;;;15.10;7.07;;;1.40;99.90;;;;;;5032390;28;20178;-66
2023/03/06 04:12:36;;;;;;;15.53;5.80;;;1.40;99.90;;;;;;5031964;28;20254;-66
2023/03/06 04:15:04;;;;;;;14.70;6.63;;;1.30;99.90;;;;;;5031887;28;20417;-65
2023/03/06 04:17:32;;;;;;;18.53;6.60;;;1.40;99.90;;;;;;5031464;28;20425;-67
2023/03/06 04:19:59;;;;;;;15.67;6.57;;;1.40;99.90;;;;;;5031775;28;20439;-68
2023/03/06 04:22:25;;;;;;;14.33;6.00;;;1.40;99.90;;;;;;5028135;28;20985;-68
2023/03/06 04:24:50;;;;;;;11.70;6.33;;;1.40;99.90;;;;;;5031905;28;20425;-67
2023/03/06 04:27:16;;;;;;;18.13;6.47;;;1.40;99.90;;;;;;5031979;28;20210;-68
2023/03/06 04:29:42;;;;;;;19.90;7.10;;;1.40;99.90;;;;;;5031777;28;20179;-67
2023/03/06 04:32:08;;;;;;;13.73;5.67;;;1.40;99.90;;;;;;5031276;28;20179;-67
2023/03/06 04:34:33;;;;;;;12.83;5.60;;;1.40;99.90;;;;;;5032100;28;20206;-68
2023/03/06 04:36:59;;;;;;;19.43;7.27;;;1.40;99.90;;;;;;5014407;28;20271;-68
2023/03/06 04:39:24;;;;;;;18.57;7.03;;;1.30;99.90;;;;;;5031929;28;20181;-68
2023/03/06 04:41:50;;;;;;;14.57;7.23;;;1.30;99.90;;;;;;5031370;28;20584;-68
2023/03/06 04:44:16;;;;;;;10.20;4.70;;;1.20;99.90;;;;;;5031524;28;20187;-68
2023/03/06 04:46:41;;;;;;;10.53;6.10;;;1.20;99.90;;;;;;5031040;28;20233;-68
2023/03/06 04:49:07;;;;;;;12.00;6.50;;;1.20;99.90;;;;;;5031342;28;20258;-67
2023/03/06 04:51:35;;;;;;;12.13;6.80;;;1.20;99.90;;;;;;5031465;28;20288;-68
2023/03/06 04:54:01;;;;;;;17.80;6.43;;;1.20;99.90;;;;;;5031706;28;20167;-68
2023/03/06 04:56:27;;;;;;;14.30;5.97;;;1.20;99.90;;;;;;5031527;28;20418;-68
2023/03/06 04:58:52;;;;;;;16.60;7.17;;;1.20;99.90;;;;;;5031044;28;20229;-68
2023/03/06 05:01:18;;;;;;;18.30;6.10;;;1.30;99.90;;;;;;5012800;28;20250;-68
2023/03/06 05:03:43;;;;;;;11.73;5.77;;;1.20;99.90;;;;;;5030824;28;20596;-68
2023/03/06 05:06:09;;;;;;;10.80;6.53;;;1.20;99.90;;;;;;5031497;28;20189;-68
2023/03/06 05:08:35;;;;;;;12.00;6.10;;;1.20;99.90;;;;;;5031503;28;20170;-68
2023/03/06 05:11:01;;;;;;;18.77;7.97;;;1.20;99.90;;;;;;5031169;28;20174;-68
2023/03/06 05:13:27;;;;;;;15.53;6.30;;;1.20;99.90;;;;;;5030414;28;20565;-69
2023/03/06 05:15:54;;;;;;;15.50;6.60;;;1.30;99.90;;;;;;5027229;28;20432;-68
2023/03/06 05:18:20;;;;;;;11.23;5.93;;;1.30;99.90;;;;;;5030756;28;20421;-68
2023/03/06 05:20:45;;;;;;;18.33;7.80;;;1.20;99.90;;;;;;5031480;28;20467;-68
2023/03/06 05:23:11;;;;;;;10.30;5.57;;;1.20;99.90;;;;;;5030725;28;20472;-68
2023/03/06 05:25:40;;;;;;;14.93;7.00;;;1.20;99.90;;;;;;5031098;28;20178;-68
2023/03/06 05:28:07;;;;;;;14.50;6.93;;;1.20;99.90;;;;;;5030721;28;21162;-68
2023/03/06 05:30:32;;;;;;;15.93;7.53;;;1.20;99.90;;;;;;5031110;28;20500;-68
2023/03/06 05:32:59;;;;;;;17.20;5.80;;;1.20;99.90;;;;;;5030504;28;20532;-68
2023/03/06 05:35:25;;;;;;;24.03;7.33;;;1.20;99.90;;;;;;5022779;28;20206;-68
2023/03/06 05:37:50;;;;;;;10.83;6.27;;;1.20;99.90;;;;;;5030909;28;20432;-68
2023/03/06 05:40:17;;;;;;;15.80;7.10;;;1.20;99.90;;;;;;5030810;28;20190;-68
2023/03/06 05:42:42;;;;;;;10.23;6.43;;;1.20;99.90;;;;;;5030410;28;20213;-68
2023/03/06 05:45:09;;;;;;;14.90;7.17;;;1.20;99.90;;;;;;5030540;28;20445;-69
2023/03/06 05:47:35;;;;;;;15.30;6.50;;;1.20;99.90;;;;;;5030147;28;20252;-68
2023/03/06 05:50:00;;;;;;;18.43;7.33;;;1.20;99.90;;;;;;5030599;28;20818;-67
2023/03/06 05:52:27;;;;;;;16.13;7.33;;;1.20;99.90;;;;;;5031340;28;20441;-68
2023/03/06 05:54:53;;;;;;;14.47;5.20;;;1.20;99.90;;;;;;5034516;28;20827;-68
2023/03/06 05:57:20;;;;;;;12.97;6.93;;;1.30;99.90;;;;;;5030334;28;20274;-68
2023/03/06 05:59:47;;;;;;;14.67;6.67;;;1.20;99.90;;;;;;5029757;28;21000;-68
2023/03/06 06:02:13;;;;;;;13.07;5.87;;;1.30;99.90;;;;;;5029682;28;20421;-68
2023/03/06 06:04:38;;;;;;;13.80;6.57;;;1.30;99.90;;;;;;5030615;28;20952;-67
2023/03/06 06:07:05;;;;;;;20.37;8.57;;;1.30;99.90;;;;;;5030370;28;20234;-67
2023/03/06 06:09:31;;;;;;;14.77;6.73;;;1.30;99.90;;;;;;5030818;28;20269;-68
2023/03/06 06:11:59;;;;;;;9.80;5.70;;;1.30;99.90;;;;;;5029217;28;20437;-67
2023/03/06 06:14:25;;;;;;;16.23;5.63;;;1.30;99.90;;;;;;5021838;28;20455;-67
2023/03/06 06:16:51;;;;;;;9.73;5.10;;;1.30;99.90;;;;;;5029384;28;20968;-68
2023/03/06 06:19:19;;;;;;;13.97;5.97;;;1.30;99.90;;;;;;5027924;28;20191;-68
2023/03/06 06:21:47;;;;;;;11.50;6.27;;;1.30;99.90;;;;;;5025928;28;20429;-67
2023/03/06 06:24:14;;;;;;;9.47;5.17;;;1.30;99.90;;;;;;5022562;28;20442;-67
2023/03/06 06:26:41;;;;;;;16.63;6.50;;;1.30;99.90;;;;;;5028568;28;20457;-67
2023/03/06 06:29:07;;;;;;;9.87;5.37;;;1.30;99.90;;;;;;5030485;28;20953;-67
2023/03/06 06:31:33;;;;;;;17.33;6.77;;;1.30;99.90;;;;;;5028929;28;20456;-67
2023/03/06 06:33:58;;;;;;;18.67;6.40;;;1.30;99.90;;;;;;5030098;28;20425;-68
2023/03/06 06:36:24;;;;;;;17.10;7.43;;;1.30;99.90;;;;;;5029578;28;20697;-67
2023/03/06 06:38:50;;;;;;;15.90;6.20;;;1.30;99.90;;;;;;5029749;28;20179;-67
2023/03/06 06:41:15;;;;;;;14.63;6.63;;;1.30;99.90;;;;;;5029513;28;20252;-67
2023/03/06 06:43:41;;;;;;;14.27;6.37;;;1.30;99.90;;;;;;5029793;28;20316;-67
2023/03/06 06:46:06;;;;;;;9.73;5.80;;;1.30;99.90;;;;;;5028986;28;20190;-67
2023/03/06 06:48:32;;;;;;;15.37;7.37;;;1.30;99.90;;;;;;5030658;28;20179;-67
2023/03/06 06:50:58;;;;;;;11.17;5.97;;;1.40;99.90;;;;;;5030190;28;20174;-67
2023/03/06 06:53:24;;;;;;;11.23;6.47;;;1.40;99.90;;;;;;5030431;28;20193;-67
2023/03/06 06:55:50;;;;;;;12.50;6.20;;;1.40;99.90;;;;;;5030182;28;20252;-67
2023/03/06 06:58:16;;;;;;;12.10;6.40;;;1.40;99.90;;;;;;5030390;28;20190;-67
2023/03/06 07:00:42;;;;;;;16.17;7.43;;;1.50;99.90;;;;;;5029575;28;20425;-67
2023/03/06 07:03:11;;;;;;;16.40;6.83;;;1.50;99.90;;;;;;5029626;28;20421;-67
2023/03/06 07:05:36;;;;;;;10.90;4.90;;;1.50;99.90;;;;;;5029954;28;20198;-67
2023/03/06 07:08:03;;;;;;;13.90;6.50;;;1.60;99.90;;;;;;5030659;28;20551;-67
2023/03/06 07:10:28;;;;;;;14.53;5.93;;;1.60;99.90;;;;;;5030207;28;20587;-67
2023/03/06 07:12:55;;;;;;;10.80;5.20;;;1.70;99.90;;;;;;5033545;28;20417;-66
2023/03/06 07:15:22;;;;;;;13.57;5.77;;;1.70;99.90;;;;;;5033682;28;20178;-67
2023/03/06 07:17:48;;;;;;;8.90;4.20;;;1.80;99.90;;;;;;5033710;28;20421;-67
2023/03/06 07:20:13;;;;;;;10.33;5.27;;;1.80;99.90;;;;;;5033479;28;20448;-67
2023/03/06 07:22:39;;;;;;;11.40;4.57;;;1.90;99.90;;;;;;5033612;28;20237;-67
2023/03/06 07:25:05;;;;;;;19.33;6.20;;;1.90;99.90;;;;;;5033975;28;20631;-67
2023/03/06 07:27:31;;;;;;;11.17;5.30;;;1.90;99.90;;;;;;5034003;28;20461;-67
2023/03/06 07:29:57;;;;;;;13.67;6.47;;;1.80;99.90;;;;;;5034324;28;20428;-67
2023/03/06 07:32:22;;;;;;;12.73;5.77;;;1.80;99.90;;;;;;5033190;28;20186;-67
2023/03/06 07:34:48;;;;;;;10.10;5.40;;;1.90;99.90;;;;;;5033888;28;20178;-67
2023/03/06 07:37:14;;;;;;;12.00;5.93;;;1.80;99.90;;;;;;5033204;28;20590;-67
2023/03/06 07:39:40;;;;;;;13.90;5.47;;;1.80;99.90;;;;;;5033534;28;20182;-67
2023/03/06 07:42:06;;;;;;;14.10;5.90;;;1.80;99.90;;;;;;5032911;28;20235;-67
2023/03/06 07:44:36;;;;;;;11.87;4.93;;;1.90;99.90;;;;;;5032884;28;20623;-67
2023/03/06 07:47:02;;;;;;;7.07;4.20;;;1.90;99.90;;;;;;5032215;28;20483;-67
2023/03/06 07:49:28;;;;;;;10.90;5.67;;;2.00;99.90;;;;;;5032872;28;20415;-67
2023/03/06 07:51:54;;;;;;;15.77;5.97;;;2.10;99.90;;;;;;5032423;28;20528;-67
2023/03/06 07:54:19;;;;;;;16.40;6.60;;;2.10;99.90;;;;;;5033003;28;20266;-67
2023/03/06 07:56:48;;;;;;;10.03;5.27;;;2.20;99.90;;;;;;5032136;28;20186;-67
2023/03/06 07:59:13;;;;;;;12.20;5.90;;;2.20;99.90;;;;;;5030231;28;20222;-67
2023/03/06 08:01:39;;;;;;;12.43;6.60;;;2.30;99.90;;;;;;5031747;28;20479;-69
2023/03/06 08:04:05;;;;;;;13.90;6.40;;;2.40;99.90;;;;;;5032819;28;20288;-69
2023/03/06 08:06:31;;;;;;;19.07;6.40;;;2.50;99.90;;;;;;5032670;28;20240;-66
2023/03/06 08:08:57;;;;;;;18.20;6.63;;;2.50;99.90;;;;;;5032440;28;20182;-66
2023/03/06 08:11:25;;;;;;;17.87;7.37;;;2.50;99.90;;;;;;5032269;28;20483;-66
2023/03/06 08:13:52;;;;;;;15.47;6.83;;;2.70;99.90;;;;;;5031923;28;20202;-66
2023/03/06 08:16:23;;;;;;;17.47;6.47;;;2.80;99.90;;;;;;5031741;28;20609;-66
2023/03/06 08:18:49;;;;;;;17.67;7.03;;;2.90;99.90;;;;;;5032532;28;20508;-66
2023/03/06 08:21:17;;;;;;;12.53;4.17;;;3.10;99.90;;;;;;5032050;28;20570;-66
2023/03/06 08:23:44;;;;;;;12.63;4.73;;;3.10;99.90;;;;;;5031245;28;20421;-66
2023/03/06 08:26:13;;;;;;;9.30;4.50;;;3.10;99.90;;;;;;5032042;28;20451;-66
2023/03/06 08:28:39;;;;;;;12.00;4.93;;;3.20;99.90;;;;;;5032310;28;20445;-66
2023/03/06 08:31:12;;;;;;;15.90;4.80;;;3.20;99.90;;;;;;5031592;28;20448;-68
2023/03/06 08:33:39;;;;;;;11.60;4.90;;;3.40;99.80;;;;;;5031225;28;20214;-69
2023/03/06 08:36:05;;;;;;;10.00;4.37;;;3.50;99.90;;;;;;5031756;28;20417;-67
2023/03/06 08:38:30;;;;;;;18.50;4.73;;;3.60;99.30;;;;;;5031621;28;20432;-67
2023/03/06 08:40:56;;;;;;;8.23;3.80;;;3.60;99.10;;;;;;5031959;28;20677;-67
2023/03/06 08:43:22;;;;;;;7.80;3.67;;;3.60;98.90;;;;;;5031672;28;20185;-67
2023/03/06 08:45:52;;;;;;;6.47;3.03;;;3.60;98.50;;;;;;5031755;28;20592;-67
2023/03/06 08:48:17;;;;;;;6.00;3.60;;;3.70;98.20;;;;;;5030295;28;20210;-67
2023/03/06 08:50:43;;;;;;;6.30;3.83;;;3.70;98.20;;;;;;5031344;28;20880;-66
2023/03/06 08:53:09;;;;;;;8.07;3.53;;;3.70;98.30;;;;;;5031068;28;20620;-66
2023/03/06 08:55:36;;;;;;;10.57;4.07;;;3.70;98.40;;;;;;5029527;28;20261;-66
2023/03/06 08:58:03;;;;;;;7.40;4.07;;;3.80;98.10;;;;;;5022948;28;20808;-67
2023/03/06 09:00:29;;;;;;;11.73;3.50;;;3.90;98.00;;;;;;5028503;28;20862;-67
2023/03/06 09:02:55;;;;;;;6.40;3.10;;;3.80;98.10;;;;;;5027837;28;20445;-67
2023/03/06 09:05:20;;;;;;;11.23;4.83;;;3.80;98.20;;;;;;5030400;28;20482;-69
2023/03/06 09:07:46;;;;;;;8.53;4.20;;;3.80;98.10;;;;;;5028562;28;20719;-67
2023/03/06 09:10:15;;;;;;;7.23;3.77;;;3.80;98.80;;;;;;5030282;28;20673;-67
2023/03/06 09:12:40;;;;;;;10.53;3.47;;;3.90;97.50;;;;;;5028616;28;20509;-67
2023/03/06 09:15:07;;;;;;;7.20;3.53;;;4.00;97.60;;;;;;5023229;28;20548;-66
2023/03/06 09:17:32;;;;;;;11.60;5.40;;;4.10;97.40;;;;;;5029466;28;20197;-67
2023/03/06 09:19:58;;;;;;;6.30;3.30;;;4.10;97.50;;;;;;5029600;28;20485;-67
2023/03/06 09:22:23;;;;;;;10.43;3.80;;;4.20;97.20;;;;;;5029822;28;20635;-67
2023/03/06 09:24:49;;;;;;;9.00;4.30;;;4.20;97.20;;;;;;5029598;28;20214;-67
2023/03/06 09:27:15;;;;;;;8.90;4.17;;;4.10;97.20;;;;;;5029426;28;20223;-67
2023/03/06 09:29:40;;;;;;;7.03;3.63;;;4.20;97.60;;;;;;5028756;28;20315;-66
2023/03/06 09:32:06;;;;;;;9.50;3.60;;;4.30;97.40;;;;;;5027873;28;20190;-67
2023/03/06 09:34:32;;;;;;;5.87;3.40;;;4.30;96.70;;;;;;5027647;28;20198;-66
2023/03/06 09:36:58;;;;;;;6.70;3.63;;;4.30;96.40;;;;;;5029654;28;20182;-66
2023/03/06 09:39:25;;;;;;;6.40;2.97;;;4.30;97.10;;;;;;5029046;28;20698;-66
2023/03/06 09:41:51;;;;;;;9.80;3.40;;;4.30;97.00;;;;;;5027583;28;20637;-67
2023/03/06 09:44:21;;;;;;;8.30;3.43;;;4.50;96.20;;;;;;5028493;28;20425;-66
2023/03/06 09:46:59;;;;;;;4.47;3.00;;;4.50;96.40;;;;;;5027992;28;20464;-66
2023/03/06 09:49:30;;;;;;;8.50;3.67;;;4.40;96.40;;;;;;5028423;28;20933;-68
2023/03/06 09:51:58;;;;;;;8.63;3.30;;;4.50;96.70;;;;;;5024099;28;20441;-67
2023/03/06 09:54:41;;;;;;;11.47;4.30;;;4.60;96.50;;;;;;5028191;28;20433;-69
2023/03/06 09:57:24;;;;;;;7.87;3.87;;;4.60;96.50;;;;;;5030265;28;20906;-68
2023/03/06 09:59:54;;;;;;;6.33;2.77;;;4.60;96.20;;;;;;5030283;28;20432;-68
2023/03/06 10:02:44;;;;;;;7.40;3.43;;;4.40;96.50;;;;;;5027769;28;20484;-68
2023/03/06 10:05:20;;;;;;;7.83;3.40;;;4.40;96.20;;;;;;5030298;28;20425;-68
2023/03/06 10:08:00;;;;;;;14.07;4.00;;;4.30;96.50;;;;;;5019701;28;20512;-67
2023/03/06 10:10:34;;;;;;;5.83;3.10;;;4.20;96.60;;;;;;5026137;28;20547;-67
2023/03/06 10:13:16;;;;;;;9.43;4.00;;;4.30;96.70;;;;;;5027515;28;20436;-68
2023/03/06 10:15:45;;;;;;;6.03;3.50;;;4.20;97.00;;;;;;5028062;28;20483;-67
2023/03/06 10:18:11;;;;;;;8.60;4.07;;;4.10;96.90;;;;;;5023066;28;20488;-67
2023/03/06 10:21:03;;;;;;;11.83;3.73;;;4.00;97.10;;;;;;5028593;28;20482;-66
2023/03/06 10:23:35;;;;;;;13.30;3.00;;;3.90;97.20;;;;;;5026636;28;20490;-66
2023/03/06 10:26:11;;;;;;;9.37;3.90;;;3.90;97.00;;;;;;5029215;28;20452;-65
2023/03/06 10:28:41;;;;;;;9.70;4.70;;;3.80;97.80;;;;;;5029587;28;20789;-65
2023/03/06 10:31:25;;;;;;;9.43;3.83;;;3.80;97.70;;;;;;5027450;28;20464;-65
2023/03/06 10:33:52;;;;;;;8.87;4.37;;;3.80;98.00;;;;;;5026723;28;20444;-66
2023/03/06 10:36:20;;;;;;;8.20;4.40;;;3.80;97.80;;;;;;5025787;28;20441;-66
2023/03/06 10:38:47;;;;;;;7.73;3.33;;;3.70;98.40;;;;;;5026951;28;20934;-66
2023/03/06 10:41:12;;;;;;;14.27;4.83;;;3.70;98.50;;;;;;5027526;28;20440;-66
2023/03/06 10:44:03;;;;;;;9.60;4.60;;;3.80;97.90;;;;;;5026251;28;20429;-66
2023/03/06 10:46:33;;;;;;;8.20;4.30;;;3.70;97.60;;;;;;5019702;28;20194;-66
2023/03/06 10:49:03;;;;;;;8.33;4.23;;;3.60;97.70;;;;;;5027255;28;20448;-66
2023/03/06 10:51:29;;;;;;;8.97;3.87;;;3.70;97.60;;;;;;5020282;28;20444;-66
2023/03/06 10:54:13;;;;;;;11.23;4.03;;;3.60;98.00;;;;;;5026337;28;20444;-66
2023/03/06 10:56:44;;;;;;;10.93;3.53;;;3.70;97.80;;;;;;5026948;28;20765;-66
2023/03/06 10:59:15;;;;;;;7.70;4.30;;;3.70;98.00;;;;;;5026048;28;20838;-66
2023/03/06 11:01:49;;;;;;;9.13;4.43;;;3.80;97.30;;;;;;5024556;28;20527;-66
2023/03/06 11:04:32;;;;;;;7.70;3.40;;;3.90;97.10;;;;;;5010138;28;20441;-68
2023/03/06 11:07:18;;;;;;;7.20;3.73;;;3.80;97.00;;;;;;5025939;28;20501;-66
2023/03/06 11:09:57;;;;;;;8.13;3.00;;;3.90;97.30;;;;;;5024080;28;20832;-67
2023/03/06 11:12:28;;;;;;;11.10;3.87;;;3.90;97.40;;;;;;5024364;28;20440;-66
2023/03/06 11:15:21;;;;;;;9.43;3.30;;;4.00;97.20;;;;;;5027455;28;20433;-66
2023/03/06 11:18:07;;;;;;;12.43;4.10;;;4.00;97.00;;;;;;5018232;28;20471;-66
2023/03/06 11:20:45;;;;;;;5.53;3.00;;;4.10;96.90;;;;;;5023651;28;20953;-66
2023/03/06 11:23:31;;;;;;;9.40;4.00;;;4.20;97.60;;;;;;5025781;28;20487;-66
2023/03/06 11:26:00;;;;;;;6.93;3.67;;;4.30;97.20;;;;;;5019676;28;20441;-65
2023/03/06 11:29:07;;;;;;;10.80;3.80;;;4.30;96.30;;;;;;5028604;28;20456;-65
2023/03/06 11:31:58;;;;;;;6.97;3.53;;;4.30;96.70;;;;;;4992361;28;20479;-66
2023/03/06 11:34:55;;;;;;;8.93;3.80;;;4.20;97.00;;;;;;5017476;28;20417;-66
2023/03/06 11:37:42;;;;;;;7.87;3.90;;;4.30;97.30;;;;;;5020540;28;20456;-66
2023/03/06 11:40:10;;;;;;;21.73;3.30;;;4.40;97.20;;;;;;5024605;28;20771;-66
2023/03/06 11:42:54;;;;;;;6.40;3.67;;;4.50;96.50;;;;;;5022210;28;20476;-66
2023/03/06 11:45:50;;;;;;;8.40;3.97;;;4.50;96.80;;;;;;5025540;28;21149;-66
2023/03/06 11:48:31;;;;;;;5.17;3.13;;;4.50;96.40;;;;;;5020928;28;20606;-66
2023/03/06 11:51:03;;;;;;;7.00;3.43;;;4.90;96.20;;;;;;5025802;28;20440;-66
2023/03/06 11:53:38;;;;;;;7.00;3.00;;;4.90;96.20;;;;;;5020867;28;20438;-66
2023/03/06 11:56:18;;;;;;;5.10;2.80;;;5.00;96.00;;;;;;5026918;28;20472;-66
2023/03/06 11:59:06;;;;;;;6.00;3.03;;;5.00;95.90;;;;;;5020634;28;20439;-66
2023/03/06 12:01:35;;;;;;;7.17;2.57;;;4.90;95.20;;;;;;5025324;28;20484;-66
2023/03/06 12:04:34;;;;;;;6.67;3.20;;;4.80;95.10;;;;;;5030719;28;20427;-66
2023/03/06 12:07:02;;;;;;;7.47;4.00;;;5.00;94.40;;;;;;5024877;28;20559;-66
2023/03/06 12:10:10;;;;;;;5.70;3.03;;;4.90;94.20;;;;;;5030879;28;20957;-66
2023/03/06 12:13:00;;;;;;;8.03;3.17;;;5.00;94.70;;;;;;5027226;28;20445;-66
2023/03/06 12:15:34;;;;;;;9.77;3.30;;;5.20;94.20;;;;;;5029491;28;20451;-66
2023/03/06 12:18:20;;;;;;;4.70;2.70;;;5.30;94.10;;;;;;5029876;28;20443;-66
2023/03/06 12:20:54;;;;;;;7.23;3.50;;;5.50;92.70;;;;;;5033044;28;20825;-66
2023/03/06 12:23:23;;;;;;;6.23;2.97;;;5.30;93.10;;;;;;5026819;28;20445;-66
2023/03/06 12:26:26;;;;;;;9.20;3.53;;;5.20;93.00;;;;;;5026864;28;20445;-67
2023/03/06 12:29:22;;;;;;;4.33;3.03;;;5.30;93.20;;;;;;4991290;28;20464;-66
2023/03/06 12:31:51;;;;;;;9.73;4.53;;;5.30;93.10;;;;;;5021165;28;20435;-66
2023/03/06 12:34:28;;;;;;;9.13;3.67;;;5.10;93.70;;;;;;5027932;28;20433;-66
2023/03/06 12:37:20;;;;;;;8.20;3.43;;;5.10;93.00;;;;;;5013499;28;20755;-66
2023/03/06 12:40:05;;;;;;;6.13;2.57;;;5.10;93.40;;;;;;5027355;28;20464;-66
2023/03/06 12:42:48;;;;;;;9.37;3.30;;;5.20;93.40;;;;;;5028986;28;20429;-66
2023/03/06 12:45:19;;;;;;;9.73;3.63;;;5.20;93.10;;;;;;5030357;28;20433;-66
2023/03/06 12:47:48;;;;;;;4.63;2.47;;;5.20;93.20;;;;;;5027776;28;20805;-66
2023/03/06 12:50:30;;;;;;;7.10;2.97;;;5.30;92.70;;;;;;5030486;28;20531;-66
2023/03/06 12:53:06;;;;;;;5.93;3.30;;;5.20;93.00;;;;;;5026669;28;20790;-67
2023/03/06 12:55:43;;;;;;;4.73;2.40;;;5.40;92.70;;;;;;5030776;28;20435;-66
2023/03/06 12:58:27;;;;;;;6.80;2.97;;;5.40;93.30;;;;;;5026153;28;20766;-66
2023/03/06 13:01:04;;;;;;;6.17;2.97;;;5.50;93.10;;;;;;5033995;28;20443;-67